sensor_id;sensor_type;location;lat;lon;timestamp;P1;durP1;ratioP1;P2;durP2;ratioP2
14019;SDS011;7085;51.428;6.796;2023-03-01T04:02:44;8.30;;;6.57;;
14019;SDS011;7085;51.428;6.796;2023-03-01T04:05:12;10.33;;;6.87;;
14019;SDS011;7085;51.428;6.796;2023-03-01T04:07:40;8.70;;;6.90;;
14019;SDS011;7085;51.428;6.796;2023-03-01T04:10:08;9.40;;;6.97;;
14019;SDS011;7085;51.428;6.796;2023-03-01T04:12:36;10.10;;;6.33;;
14019;SDS011;7085;51.428;6.796;2023-03-01T04:15:03;8.03;;;5.90;;
14019;SDS011;7085;51.428;6.796;2023-03-01T04:17:38;8.33;;;6.40;;
14019;SDS011;7085;51.428;6.796;2023-03-01T04:20:07;8.03;;;6.43;;
14019;SDS011;7085;51.428;6.796;2023-03-01T04:22:36;10.23;;;7.10;;
14019;SDS011;7085;51.428;6.796;2023-03-01T04:25:03;8.90;;;6.73;;
14019;SDS011;7085;51.428;6.796;2023-03-01T04:27:31;11.83;;;6.90;;
14019;SDS011;7085;51.428;6.796;2023-03-01T04:29:58;7.83;;;5.67;;
14019;SDS011;7085;51.428;6.796;2023-03-01T04:32:25;7.83;;;6.80;;
14019;SDS011;7085;51.428;6.796;2023-03-01T04:34:52;8.43;;;6.10;;
14019;SDS011;7085;51.428;6.796;2023-03-01T04:37:20;8.77;;;6.53;;
14019;SDS011;7085;51.428;6.796;2023-03-01T04:39:48;11.53;;;6.10;;
14019;SDS011;7085;51.428;6.796;2023-03-01T04:42:16;11.87;;;6.40;;
14019;SDS011;7085;51.428;6.796;2023-03-01T04:44:43;8.83;;;6.63;;
14019;SDS011;7085;51.428;6.796;2023-03-01T04:47:10;10.43;;;6.77;;
14019;SDS011;7085;51.428;6.796;2023-03-01T04:49:37;12.33;;;7.20;;
14019;SDS011;7085;51.428;6.796;2023-03-01T04:52:04;8.50;;;6.23;;
14019;SDS011;7085;51.428;6.796;2023-03-01T04:54:33;9.63;;;6.97;;
14019;SDS011;7085;51.428;6.796;2023-03-01T04:57:01;8.73;;;6.97;;
14019;SDS011;7085;51.428;6.796;2023-03-01T04:59:28;10.97;;;7.20;;
14019;SDS011;7085;51.428;6.796;2023-03-01T05:01:55;9.47;;;6.07;;
14019;SDS011;7085;51.428;6.796;2023-03-01T05:04:23;17.07;;;6.87;;
14019;SDS011;7085;51.428;6.796;2023-03-01T05:06:50;9.87;;;6.33;;
14019;SDS011;7085;51.428;6.796;2023-03-01T05:09:18;10.13;;;6.63;;
14019;SDS011;7085;51.428;6.796;2023-03-01T05:11:47;11.07;;;7.43;;
14019;SDS011;7085;51.428;6.796;2023-03-01T05:14:15;11.97;;;7.10;;
14019;SDS011;7085;51.428;6.796;2023-03-01T05:16:42;8.13;;;6.40;;
14019;SDS011;7085;51.428;6.796;2023-03-01T05:19:09;8.43;;;7.13;;
14019;SDS011;7085;51.428;6.796;2023-03-01T05:21:40;9.10;;;7.17;;
14019;SDS011;7085;51.428;6.796;2023-03-01T05:24:21;9.33;;;6.90;;
14019;SDS011;7085;51.428;6.796;2023-03-01T05:26:49;9.63;;;7.10;;
14019;SDS011;7085;51.428;6.796;2023-03-01T05:29:18;9.77;;;7.23;;
14019;SDS011;7085;51.428;6.796;2023-03-01T05:31:49;11.50;;;7.30;;
14019;SDS011;7085;51.428;6.796;2023-03-01T05:34:17;10.13;;;7.00;;
14019;SDS011;7085;51.428;6.796;2023-03-01T05:36:44;9.87;;;7.17;;
14019;SDS011;7085;51.428;6.796;2023-03-01T05:39:11;10.87;;;7.00;;
14019;SDS011;7085;51.428;6.796;2023-03-01T05:41:38;12.70;;;7.47;;
14019;SDS011;7085;51.428;6.796;2023-03-01T05:44:07;15.73;;;7.60;;
14019;SDS011;7085;51.428;6.796;2023-03-01T05:46:34;13.13;;;7.23;;
14019;SDS011;7085;51.428;6.796;2023-03-01T05:49:01;12.60;;;7.27;;
14019;SDS011;7085;51.428;6.796;2023-03-01T05:51:29;9.17;;;6.80;;
14019;SDS011;7085;51.428;6.796;2023-03-01T05:53:57;10.70;;;6.93;;
14019;SDS011;7085;51.428;6.796;2023-03-01T05:56:24;8.03;;;6.67;;
14019;SDS011;7085;51.428;6.796;2023-03-01T05:58:51;8.47;;;7.57;;
14019;SDS011;7085;51.428;6.796;2023-03-01T06:01:19;9.27;;;6.87;;
14019;SDS011;7085;51.428;6.796;2023-03-01T06:03:46;12.67;;;7.50;;
14019;SDS011;7085;51.428;6.796;2023-03-01T06:06:13;11.63;;;7.60;;
14019;SDS011;7085;51.428;6.796;2023-03-01T06:08:40;11.43;;;7.57;;
14019;SDS011;7085;51.428;6.796;2023-03-01T06:11:07;12.07;;;7.70;;
14019;SDS011;7085;51.428;6.796;2023-03-01T06:13:35;9.30;;;6.87;;
14019;SDS011;7085;51.428;6.796;2023-03-01T06:16:03;11.27;;;7.57;;
14019;SDS011;7085;51.428;6.796;2023-03-01T06:18:32;10.93;;;7.73;;
14019;SDS011;7085;51.428;6.796;2023-03-01T06:20:59;9.37;;;6.73;;
14019;SDS011;7085;51.428;6.796;2023-03-01T06:23:26;10.40;;;7.90;;
14019;SDS011;7085;51.428;6.796;2023-03-01T06:25:53;9.27;;;7.13;;
14019;SDS011;7085;51.428;6.796;2023-03-01T06:28:20;8.70;;;7.30;;
14019;SDS011;7085;51.428;6.796;2023-03-01T06:30:47;9.60;;;7.43;;
14019;SDS011;7085;51.428;6.796;2023-03-01T06:33:14;9.43;;;7.07;;
14019;SDS011;7085;51.428;6.796;2023-03-01T06:35:43;11.97;;;7.23;;
14019;SDS011;7085;51.428;6.796;2023-03-01T06:38:10;11.23;;;8.17;;
14019;SDS011;7085;51.428;6.796;2023-03-01T06:40:39;11.80;;;7.83;;
14019;SDS011;7085;51.428;6.796;2023-03-01T06:43:07;11.30;;;7.73;;
14019;SDS011;7085;51.428;6.796;2023-03-01T06:45:34;17.00;;;8.70;;
14019;SDS011;7085;51.428;6.796;2023-03-01T06:48:01;7.53;;;6.40;;
14019;SDS011;7085;51.428;6.796;2023-03-01T06:50:29;13.50;;;8.27;;
14019;SDS011;7085;51.428;6.796;2023-03-01T06:52:57;10.90;;;7.57;;
14019;SDS011;7085;51.428;6.796;2023-03-01T06:55:24;10.07;;;7.77;;
14019;SDS011;7085;51.428;6.796;2023-03-01T06:57:53;12.13;;;7.57;;
14019;SDS011;7085;51.428;6.796;2023-03-01T07:00:21;8.43;;;7.50;;
14019;SDS011;7085;51.428;6.796;2023-03-01T07:02:48;12.77;;;8.90;;
14019;SDS011;7085;51.428;6.796;2023-03-01T07:05:16;12.43;;;8.33;;
14019;SDS011;7085;51.428;6.796;2023-03-01T07:07:43;11.70;;;7.70;;
14019;SDS011;7085;51.428;6.796;2023-03-01T07:10:12;10.77;;;7.33;;
14019;SDS011;7085;51.428;6.796;2023-03-01T07:12:39;11.97;;;7.50;;
14019;SDS011;7085;51.428;6.796;2023-03-01T07:15:08;10.07;;;7.17;;
14019;SDS011;7085;51.428;6.796;2023-03-01T07:17:35;14.10;;;7.67;;
14019;SDS011;7085;51.428;6.796;2023-03-01T07:20:02;10.20;;;7.87;;
14019;SDS011;7085;51.428;6.796;2023-03-01T07:22:29;13.03;;;7.47;;
14019;SDS011;7085;51.428;6.796;2023-03-01T07:24:56;11.87;;;8.03;;
14019;SDS011;7085;51.428;6.796;2023-03-01T07:27:25;11.03;;;8.07;;
14019;SDS011;7085;51.428;6.796;2023-03-01T07:29:52;14.53;;;7.83;;
14019;SDS011;7085;51.428;6.796;2023-03-01T07:32:19;11.93;;;8.27;;
14019;SDS011;7085;51.428;6.796;2023-03-01T07:34:46;10.63;;;7.80;;
14019;SDS011;7085;51.428;6.796;2023-03-01T07:37:13;14.27;;;8.13;;
14019;SDS011;7085;51.428;6.796;2023-03-01T07:39:40;13.10;;;8.17;;
14019;SDS011;7085;51.428;6.796;2023-03-01T07:42:07;11.87;;;7.70;;
14019;SDS011;7085;51.428;6.796;2023-03-01T07:44:36;12.53;;;9.10;;
14019;SDS011;7085;51.428;6.796;2023-03-01T07:47:03;13.20;;;8.30;;
14019;SDS011;7085;51.428;6.796;2023-03-01T07:49:30;9.73;;;8.07;;
14019;SDS011;7085;51.428;6.796;2023-03-01T07:51:57;10.87;;;8.10;;
14019;SDS011;7085;51.428;6.796;2023-03-01T07:54:24;10.63;;;8.10;;
14019;SDS011;7085;51.428;6.796;2023-03-01T07:56:51;12.47;;;8.30;;
14019;SDS011;7085;51.428;6.796;2023-03-01T07:59:19;10.30;;;7.60;;
14019;SDS011;7085;51.428;6.796;2023-03-01T08:01:49;13.00;;;7.57;;
14019;SDS011;7085;51.428;6.796;2023-03-01T08:04:17;9.23;;;7.80;;
14019;SDS011;7085;51.428;6.796;2023-03-01T08:06:44;12.57;;;8.53;;
14019;SDS011;7085;51.428;6.796;2023-03-01T08:09:11;10.83;;;8.03;;
14019;SDS011;7085;51.428;6.796;2023-03-01T08:11:38;13.40;;;8.60;;
14019;SDS011;7085;51.428;6.796;2023-03-01T08:14:05;12.27;;;7.47;;
14019;SDS011;7085;51.428;6.796;2023-03-01T08:16:32;12.97;;;8.57;;
14019;SDS011;7085;51.428;6.796;2023-03-01T08:19:04;9.10;;;8.00;;
14019;SDS011;7085;51.428;6.796;2023-03-01T08:21:31;9.30;;;7.70;;
14019;SDS011;7085;51.428;6.796;2023-03-01T08:23:59;10.80;;;8.33;;
14019;SDS011;7085;51.428;6.796;2023-03-01T08:26:26;10.27;;;8.00;;
14019;SDS011;7085;51.428;6.796;2023-03-01T08:28:54;12.90;;;7.73;;
14019;SDS011;7085;51.428;6.796;2023-03-01T08:31:21;9.93;;;7.33;;
14019;SDS011;7085;51.428;6.796;2023-03-01T08:33:50;10.97;;;6.90;;
14019;SDS011;7085;51.428;6.796;2023-03-01T08:36:21;10.60;;;7.57;;
14019;SDS011;7085;51.428;6.796;2023-03-01T08:38:48;9.60;;;8.15;;
14019;SDS011;7085;51.428;6.796;2023-03-01T08:41:15;9.35;;;6.55;;
14019;SDS011;7085;51.428;6.796;2023-03-01T08:43:42;10.45;;;6.90;;
14019;SDS011;7085;51.428;6.796;2023-03-01T08:46:10;11.43;;;7.22;;
14019;SDS011;7085;51.428;6.796;2023-03-01T08:48:37;7.43;;;6.55;;
14019;SDS011;7085;51.428;6.796;2023-03-01T08:51:08;9.30;;;6.82;;
14019;SDS011;7085;51.428;6.796;2023-03-01T08:53:36;9.02;;;6.45;;
14019;SDS011;7085;51.428;6.796;2023-03-01T08:56:03;7.78;;;6.70;;
14019;SDS011;7085;51.428;6.796;2023-03-01T08:58:31;13.77;;;8.05;;
14019;SDS011;7085;51.428;6.796;2023-03-01T09:00:58;10.48;;;6.60;;
14019;SDS011;7085;51.428;6.796;2023-03-01T09:03:25;9.77;;;7.07;;
14019;SDS011;7085;51.428;6.796;2023-03-01T09:05:52;10.75;;;6.65;;
14019;SDS011;7085;51.428;6.796;2023-03-01T09:08:19;8.38;;;6.68;;
14019;SDS011;7085;51.428;6.796;2023-03-01T09:10:48;7.97;;;6.50;;
14019;SDS011;7085;51.428;6.796;2023-03-01T09:13:15;11.13;;;6.22;;
14019;SDS011;7085;51.428;6.796;2023-03-01T09:15:42;11.20;;;8.88;;
14019;SDS011;7085;51.428;6.796;2023-03-01T09:18:09;8.23;;;5.82;;
14019;SDS011;7085;51.428;6.796;2023-03-01T09:20:36;8.45;;;6.75;;
14019;SDS011;7085;51.428;6.796;2023-03-01T09:23:03;9.13;;;6.43;;
14019;SDS011;7085;51.428;6.796;2023-03-01T09:25:30;7.20;;;6.35;;
14019;SDS011;7085;51.428;6.796;2023-03-01T09:27:58;9.23;;;6.30;;
14019;SDS011;7085;51.428;6.796;2023-03-01T09:30:25;7.18;;;6.47;;
14019;SDS011;7085;51.428;6.796;2023-03-01T09:32:52;10.85;;;6.68;;
14019;SDS011;7085;51.428;6.796;2023-03-01T09:35:19;8.70;;;6.72;;
14019;SDS011;7085;51.428;6.796;2023-03-01T09:37:47;9.63;;;6.28;;
14019;SDS011;7085;51.428;6.796;2023-03-01T09:40:16;8.35;;;6.05;;
14019;SDS011;7085;51.428;6.796;2023-03-01T09:42:50;7.15;;;6.45;;
14019;SDS011;7085;51.428;6.796;2023-03-01T09:45:23;16.27;;;7.03;;
14019;SDS011;7085;51.428;6.796;2023-03-01T09:47:50;6.85;;;5.95;;
14019;SDS011;7085;51.428;6.796;2023-03-01T09:50:18;7.07;;;6.20;;
14019;SDS011;7085;51.428;6.796;2023-03-01T09:52:47;7.63;;;6.22;;
14019;SDS011;7085;51.428;6.796;2023-03-01T09:55:17;7.88;;;6.28;;
14019;SDS011;7085;51.428;6.796;2023-03-01T09:57:47;6.65;;;5.95;;
14019;SDS011;7085;51.428;6.796;2023-03-01T10:00:17;10.77;;;6.55;;
14019;SDS011;7085;51.428;6.796;2023-03-01T10:02:49;9.80;;;6.07;;
14019;SDS011;7085;51.428;6.796;2023-03-01T10:05:26;7.90;;;6.13;;
14019;SDS011;7085;51.428;6.796;2023-03-01T10:07:59;7.55;;;5.97;;
14019;SDS011;7085;51.428;6.796;2023-03-01T10:10:28;9.52;;;6.15;;
14019;SDS011;7085;51.428;6.796;2023-03-01T10:12:59;7.57;;;6.05;;
14019;SDS011;7085;51.428;6.796;2023-03-01T10:15:30;8.88;;;5.55;;
14019;SDS011;7085;51.428;6.796;2023-03-01T10:18:03;8.80;;;6.30;;
14019;SDS011;7085;51.428;6.796;2023-03-01T10:20:33;7.28;;;5.38;;
14019;SDS011;7085;51.428;6.796;2023-03-01T10:23:03;7.03;;;5.90;;
14019;SDS011;7085;51.428;6.796;2023-03-01T10:25:36;11.00;;;5.72;;
14019;SDS011;7085;51.428;6.796;2023-03-01T10:28:06;6.05;;;5.40;;
14019;SDS011;7085;51.428;6.796;2023-03-01T10:30:37;8.25;;;5.32;;
14019;SDS011;7085;51.428;6.796;2023-03-01T10:33:10;7.30;;;5.07;;
14019;SDS011;7085;51.428;6.796;2023-03-01T10:35:39;6.70;;;5.13;;
14019;SDS011;7085;51.428;6.796;2023-03-01T10:38:07;7.05;;;5.10;;
14019;SDS011;7085;51.428;6.796;2023-03-01T10:40:35;7.55;;;5.25;;
14019;SDS011;7085;51.428;6.796;2023-03-01T10:43:04;7.57;;;5.38;;
14019;SDS011;7085;51.428;6.796;2023-03-01T10:45:33;6.70;;;5.20;;
14019;SDS011;7085;51.428;6.796;2023-03-01T10:50:48;5.65;;;4.88;;
14019;SDS011;7085;51.428;6.796;2023-03-01T10:53:20;7.45;;;5.30;;
14019;SDS011;7085;51.428;6.796;2023-03-01T10:55:55;6.13;;;4.75;;
14019;SDS011;7085;51.428;6.796;2023-03-01T10:58:23;6.13;;;5.03;;
14019;SDS011;7085;51.428;6.796;2023-03-01T11:00:50;6.18;;;5.40;;
14019;SDS011;7085;51.428;6.796;2023-03-01T11:03:19;6.93;;;5.82;;
14019;SDS011;7085;51.428;6.796;2023-03-01T11:05:53;5.72;;;5.10;;
14019;SDS011;7085;51.428;6.796;2023-03-01T11:08:31;6.50;;;5.25;;
14019;SDS011;7085;51.428;6.796;2023-03-01T11:13:51;5.40;;;4.60;;
14019;SDS011;7085;51.428;6.796;2023-03-01T11:16:22;5.30;;;4.68;;
14019;SDS011;7085;51.428;6.796;2023-03-01T11:18:56;6.32;;;5.38;;
14019;SDS011;7085;51.428;6.796;2023-03-01T11:21:25;7.65;;;5.63;;
14019;SDS011;7085;51.428;6.796;2023-03-01T11:23:53;7.03;;;4.72;;
14019;SDS011;7085;51.428;6.796;2023-03-01T11:26:20;8.93;;;6.22;;
14019;SDS011;7085;51.428;6.796;2023-03-01T11:28:49;6.25;;;4.55;;
14019;SDS011;7085;51.428;6.796;2023-03-01T11:31:17;5.95;;;4.78;;
14019;SDS011;7085;51.428;6.796;2023-03-01T11:33:46;5.47;;;4.53;;
14019;SDS011;7085;51.428;6.796;2023-03-01T11:36:16;5.55;;;4.15;;
14019;SDS011;7085;51.428;6.796;2023-03-01T11:38:44;5.35;;;4.15;;
14019;SDS011;7085;51.428;6.796;2023-03-01T11:41:13;7.47;;;4.40;;
14019;SDS011;7085;51.428;6.796;2023-03-01T11:43:43;6.95;;;4.70;;
14019;SDS011;7085;51.428;6.796;2023-03-01T11:49:05;4.35;;;3.95;;
14019;SDS011;7085;51.428;6.796;2023-03-01T11:51:38;6.15;;;4.28;;
14019;SDS011;7085;51.428;6.796;2023-03-01T11:54:16;5.35;;;4.80;;
14019;SDS011;7085;51.428;6.796;2023-03-01T11:56:45;5.65;;;4.40;;
14019;SDS011;7085;51.428;6.796;2023-03-01T11:59:25;5.43;;;4.88;;
14019;SDS011;7085;51.428;6.796;2023-03-01T12:02:00;5.10;;;4.28;;
14019;SDS011;7085;51.428;6.796;2023-03-01T12:07:20;5.00;;;4.50;;
14019;SDS011;7085;51.428;6.796;2023-03-01T12:09:58;7.00;;;4.57;;
14019;SDS011;7085;51.428;6.796;2023-03-01T12:12:30;4.40;;;4.00;;
14019;SDS011;7085;51.428;6.796;2023-03-01T12:17:52;5.20;;;4.43;;
14019;SDS011;7085;51.428;6.796;2023-03-01T12:20:26;6.40;;;4.95;;
14019;SDS011;7085;51.428;6.796;2023-03-01T12:23:02;7.68;;;4.20;;
14019;SDS011;7085;51.428;6.796;2023-03-01T12:25:34;5.13;;;4.28;;
14019;SDS011;7085;51.428;6.796;2023-03-01T12:28:13;5.20;;;4.68;;
14019;SDS011;7085;51.428;6.796;2023-03-01T12:30:49;5.75;;;4.28;;
14019;SDS011;7085;51.428;6.796;2023-03-01T12:33:22;4.70;;;4.20;;
14019;SDS011;7085;51.428;6.796;2023-03-01T12:35:58;7.78;;;4.60;;
14019;SDS011;7085;51.428;6.796;2023-03-01T12:38:33;6.03;;;4.40;;
14019;SDS011;7085;51.428;6.796;2023-03-01T12:41:11;6.05;;;4.25;;
14019;SDS011;7085;51.428;6.796;2023-03-01T12:43:44;5.20;;;4.70;;
14019;SDS011;7085;51.428;6.796;2023-03-01T12:46:18;7.13;;;5.05;;
14019;SDS011;7085;51.428;6.796;2023-03-01T12:48:50;7.25;;;5.15;;
14019;SDS011;7085;51.428;6.796;2023-03-01T12:51:22;10.60;;;6.03;;
14019;SDS011;7085;51.428;6.796;2023-03-01T12:53:51;6.72;;;5.30;;
14019;SDS011;7085;51.428;6.796;2023-03-01T12:56:21;7.28;;;4.88;;
14019;SDS011;7085;51.428;6.796;2023-03-01T12:58:51;7.18;;;4.97;;
14019;SDS011;7085;51.428;6.796;2023-03-01T13:01:22;6.25;;;4.75;;
14019;SDS011;7085;51.428;6.796;2023-03-01T13:03:57;4.93;;;4.30;;
14019;SDS011;7085;51.428;6.796;2023-03-01T13:06:29;6.55;;;5.38;;
14019;SDS011;7085;51.428;6.796;2023-03-01T13:09:03;5.88;;;4.70;;
14019;SDS011;7085;51.428;6.796;2023-03-01T13:11:33;5.75;;;4.28;;
14019;SDS011;7085;51.428;6.796;2023-03-01T13:16:47;5.32;;;4.55;;
14019;SDS011;7085;51.428;6.796;2023-03-01T13:19:16;5.40;;;4.57;;
14019;SDS011;7085;51.428;6.796;2023-03-01T13:21:44;5.22;;;4.72;;
14019;SDS011;7085;51.428;6.796;2023-03-01T13:24:24;5.18;;;4.50;;
14019;SDS011;7085;51.428;6.796;2023-03-01T13:29:45;4.53;;;4.13;;
14019;SDS011;7085;51.428;6.796;2023-03-01T13:32:19;4.82;;;4.32;;
14019;SDS011;7085;51.428;6.796;2023-03-01T13:37:26;5.13;;;4.53;;
14019;SDS011;7085;51.428;6.796;2023-03-01T13:39:55;5.55;;;4.95;;
14019;SDS011;7085;51.428;6.796;2023-03-01T13:42:33;8.40;;;4.78;;
14019;SDS011;7085;51.428;6.796;2023-03-01T13:45:04;6.65;;;5.10;;
14019;SDS011;7085;51.428;6.796;2023-03-01T13:47:31;5.80;;;4.90;;
14019;SDS011;7085;51.428;6.796;2023-03-01T13:50:00;9.43;;;5.18;;
14019;SDS011;7085;51.428;6.796;2023-03-01T13:52:34;5.57;;;4.95;;
14019;SDS011;7085;51.428;6.796;2023-03-01T13:55:02;5.85;;;4.93;;
14019;SDS011;7085;51.428;6.796;2023-03-01T13:57:32;5.50;;;5.00;;
14019;SDS011;7085;51.428;6.796;2023-03-01T14:00:00;5.30;;;4.80;;
14019;SDS011;7085;51.428;6.796;2023-03-01T14:02:29;6.05;;;4.60;;
14019;SDS011;7085;51.428;6.796;2023-03-01T14:04:56;5.97;;;4.72;;
14019;SDS011;7085;51.428;6.796;2023-03-01T14:07:24;6.30;;;4.82;;
14019;SDS011;7085;51.428;6.796;2023-03-01T14:09:55;6.85;;;4.72;;
14019;SDS011;7085;51.428;6.796;2023-03-01T14:12:25;6.25;;;4.65;;
14019;SDS011;7085;51.428;6.796;2023-03-01T14:14:55;7.55;;;5.13;;
14019;SDS011;7085;51.428;6.796;2023-03-01T14:17:35;6.68;;;4.75;;
14019;SDS011;7085;51.428;6.796;2023-03-01T14:20:07;6.53;;;5.07;;
14019;SDS011;7085;51.428;6.796;2023-03-01T14:22:35;7.13;;;5.32;;
14019;SDS011;7085;51.428;6.796;2023-03-01T14:25:04;5.57;;;4.97;;
14019;SDS011;7085;51.428;6.796;2023-03-01T14:27:33;5.03;;;4.53;;
14019;SDS011;7085;51.428;6.796;2023-03-01T14:30:01;7.45;;;5.10;;
14019;SDS011;7085;51.428;6.796;2023-03-01T14:32:29;11.18;;;5.30;;
14019;SDS011;7085;51.428;6.796;2023-03-01T14:34:58;6.72;;;5.10;;
14019;SDS011;7085;51.428;6.796;2023-03-01T14:37:27;8.25;;;5.15;;
14019;SDS011;7085;51.428;6.796;2023-03-01T14:39:56;6.15;;;5.10;;
14019;SDS011;7085;51.428;6.796;2023-03-01T14:42:23;7.68;;;5.40;;
14019;SDS011;7085;51.428;6.796;2023-03-01T14:44:52;5.90;;;5.10;;
14019;SDS011;7085;51.428;6.796;2023-03-01T14:47:23;7.22;;;5.47;;
14019;SDS011;7085;51.428;6.796;2023-03-01T14:49:54;9.57;;;5.82;;
14019;SDS011;7085;51.428;6.796;2023-03-01T14:52:25;8.43;;;5.20;;
14019;SDS011;7085;51.428;6.796;2023-03-01T14:54:55;5.88;;;4.65;;
14019;SDS011;7085;51.428;6.796;2023-03-01T14:57:23;8.15;;;5.65;;
14019;SDS011;7085;51.428;6.796;2023-03-01T14:59:50;6.25;;;5.25;;
14019;SDS011;7085;51.428;6.796;2023-03-01T15:02:19;7.97;;;4.97;;
14019;SDS011;7085;51.428;6.796;2023-03-01T15:04:48;7.70;;;5.60;;
14019;SDS011;7085;51.428;6.796;2023-03-01T15:07:16;9.52;;;6.32;;
14019;SDS011;7085;51.428;6.796;2023-03-01T15:09:44;7.57;;;5.90;;
14019;SDS011;7085;51.428;6.796;2023-03-01T15:12:31;8.98;;;5.93;;
14019;SDS011;7085;51.428;6.796;2023-03-01T15:15:00;6.68;;;5.75;;
14019;SDS011;7085;51.428;6.796;2023-03-01T15:17:30;8.10;;;5.75;;
14019;SDS011;7085;51.428;6.796;2023-03-01T15:19:57;7.95;;;5.72;;
14019;SDS011;7085;51.428;6.796;2023-03-01T15:22:25;10.98;;;5.90;;
14019;SDS011;7085;51.428;6.796;2023-03-01T15:24:54;8.32;;;5.78;;
14019;SDS011;7085;51.428;6.796;2023-03-01T15:27:22;9.00;;;5.10;;
14019;SDS011;7085;51.428;6.796;2023-03-01T15:29:50;7.88;;;5.72;;
14019;SDS011;7085;51.428;6.796;2023-03-01T15:32:26;8.02;;;5.82;;
14019;SDS011;7085;51.428;6.796;2023-03-01T15:34:53;8.90;;;6.32;;
14019;SDS011;7085;51.428;6.796;2023-03-01T15:37:36;7.28;;;5.22;;
14019;SDS011;7085;51.428;6.796;2023-03-01T15:40:18;9.43;;;6.07;;
14019;SDS011;7085;51.428;6.796;2023-03-01T15:42:46;8.55;;;5.63;;
14019;SDS011;7085;51.428;6.796;2023-03-01T15:45:21;8.80;;;5.53;;
14019;SDS011;7085;51.428;6.796;2023-03-01T15:47:48;6.15;;;4.90;;
14019;SDS011;7085;51.428;6.796;2023-03-01T15:50:17;7.25;;;5.43;;
14019;SDS011;7085;51.428;6.796;2023-03-01T15:52:45;6.55;;;5.22;;
14019;SDS011;7085;51.428;6.796;2023-03-01T15:55:15;7.63;;;5.68;;
14019;SDS011;7085;51.428;6.796;2023-03-01T15:57:44;7.18;;;5.40;;
14019;SDS011;7085;51.428;6.796;2023-03-01T16:00:12;6.07;;;4.45;;
14019;SDS011;7085;51.428;6.796;2023-03-01T16:02:40;8.20;;;5.05;;
14019;SDS011;7085;51.428;6.796;2023-03-01T16:05:10;8.02;;;5.57;;
14019;SDS011;7085;51.428;6.796;2023-03-01T16:07:40;7.32;;;6.07;;
14019;SDS011;7085;51.428;6.796;2023-03-01T16:10:07;7.38;;;5.05;;
14019;SDS011;7085;51.428;6.796;2023-03-01T16:12:34;9.70;;;5.20;;
14019;SDS011;7085;51.428;6.796;2023-03-01T16:15:03;7.78;;;5.53;;
14019;SDS011;7085;51.428;6.796;2023-03-01T16:17:30;6.50;;;5.80;;
14019;SDS011;7085;51.428;6.796;2023-03-01T16:19:57;11.77;;;6.30;;
14019;SDS011;7085;51.428;6.796;2023-03-01T16:22:24;9.52;;;5.65;;
14019;SDS011;7085;51.428;6.796;2023-03-01T16:24:52;8.45;;;5.13;;
14019;SDS011;7085;51.428;6.796;2023-03-01T16:27:19;5.72;;;5.00;;
14019;SDS011;7085;51.428;6.796;2023-03-01T16:29:46;8.57;;;5.35;;
14019;SDS011;7085;51.428;6.796;2023-03-01T16:32:14;7.47;;;4.78;;
14019;SDS011;7085;51.428;6.796;2023-03-01T16:34:42;6.72;;;5.22;;
14019;SDS011;7085;51.428;6.796;2023-03-01T16:37:09;7.47;;;4.93;;
14019;SDS011;7085;51.428;6.796;2023-03-01T16:39:37;7.53;;;4.68;;
14019;SDS011;7085;51.428;6.796;2023-03-01T16:42:04;8.60;;;4.97;;
14019;SDS011;7085;51.428;6.796;2023-03-01T16:44:31;7.97;;;4.53;;
14019;SDS011;7085;51.428;6.796;2023-03-01T16:46:58;6.43;;;5.45;;
14019;SDS011;7085;51.428;6.796;2023-03-01T16:49:27;7.03;;;4.95;;
14019;SDS011;7085;51.428;6.796;2023-03-01T16:51:54;6.45;;;5.00;;
14019;SDS011;7085;51.428;6.796;2023-03-01T16:54:21;9.45;;;5.43;;
14019;SDS011;7085;51.428;6.796;2023-03-01T16:56:48;6.07;;;4.80;;
14019;SDS011;7085;51.428;6.796;2023-03-01T16:59:15;7.05;;;5.28;;
14019;SDS011;7085;51.428;6.796;2023-03-01T17:01:44;12.80;;;5.25;;
14019;SDS011;7085;51.428;6.796;2023-03-01T17:04:12;5.57;;;4.97;;
14019;SDS011;7085;51.428;6.796;2023-03-01T17:06:41;11.68;;;5.72;;
14019;SDS011;7085;51.428;6.796;2023-03-01T17:09:08;6.40;;;4.93;;
14019;SDS011;7085;51.428;6.796;2023-03-01T17:11:36;5.93;;;5.20;;
14019;SDS011;7085;51.428;6.796;2023-03-01T17:14:03;7.82;;;4.90;;
14019;SDS011;7085;51.428;6.796;2023-03-01T17:16:30;7.25;;;4.97;;
14019;SDS011;7085;51.428;6.796;2023-03-01T17:18:58;7.95;;;5.18;;
14019;SDS011;7085;51.428;6.796;2023-03-01T17:21:25;8.05;;;5.78;;
14019;SDS011;7085;51.428;6.796;2023-03-01T17:23:56;7.97;;;5.55;;
14019;SDS011;7085;51.428;6.796;2023-03-01T17:26:23;11.38;;;5.25;;
14019;SDS011;7085;51.428;6.796;2023-03-01T17:28:50;9.25;;;5.72;;
14019;SDS011;7085;51.428;6.796;2023-03-01T17:31:17;8.55;;;5.07;;
14019;SDS011;7085;51.428;6.796;2023-03-01T17:33:44;7.00;;;5.18;;
14019;SDS011;7085;51.428;6.796;2023-03-01T17:36:12;7.17;;;4.70;;
14019;SDS011;7085;51.428;6.796;2023-03-01T17:38:39;8.55;;;5.43;;
14019;SDS011;7085;51.428;6.796;2023-03-01T17:41:07;8.85;;;5.60;;
14019;SDS011;7085;51.428;6.796;2023-03-01T17:43:36;10.05;;;5.68;;
14019;SDS011;7085;51.428;6.796;2023-03-01T17:46:03;7.93;;;5.05;;
14019;SDS011;7085;51.428;6.796;2023-03-01T17:48:30;6.60;;;4.97;;
14019;SDS011;7085;51.428;6.796;2023-03-01T17:50:57;10.02;;;6.15;;
14019;SDS011;7085;51.428;6.796;2023-03-01T17:53:24;9.57;;;4.95;;
14019;SDS011;7085;51.428;6.796;2023-03-01T17:55:57;6.90;;;4.43;;
14019;SDS011;7085;51.428;6.796;2023-03-01T17:58:26;7.30;;;4.70;;
14019;SDS011;7085;51.428;6.796;2023-03-01T18:00:53;9.85;;;5.00;;
14019;SDS011;7085;51.428;6.796;2023-03-01T18:03:20;5.53;;;4.45;;
14019;SDS011;7085;51.428;6.796;2023-03-01T18:05:47;6.88;;;5.03;;
14019;SDS011;7085;51.428;6.796;2023-03-01T18:08:14;8.27;;;5.20;;
14019;SDS011;7085;51.428;6.796;2023-03-01T18:10:41;6.20;;;4.60;;
14019;SDS011;7085;51.428;6.796;2023-03-01T18:13:09;8.70;;;5.95;;
14019;SDS011;7085;51.428;6.796;2023-03-01T18:15:40;8.03;;;4.80;;
14019;SDS011;7085;51.428;6.796;2023-03-01T18:18:07;10.63;;;5.45;;
14019;SDS011;7085;51.428;6.796;2023-03-01T18:20:34;7.03;;;4.68;;
14019;SDS011;7085;51.428;6.796;2023-03-01T18:23:01;7.47;;;5.17;;
14019;SDS011;7085;51.428;6.796;2023-03-01T18:25:31;7.10;;;5.27;;
14019;SDS011;7085;51.428;6.796;2023-03-01T18:28:00;7.43;;;5.17;;
14019;SDS011;7085;51.428;6.796;2023-03-01T18:30:27;8.73;;;5.47;;
14019;SDS011;7085;51.428;6.796;2023-03-01T18:32:58;7.80;;;5.87;;
14019;SDS011;7085;51.428;6.796;2023-03-01T18:35:30;8.17;;;5.87;;
14019;SDS011;7085;51.428;6.796;2023-03-01T18:37:57;7.82;;;5.50;;
14019;SDS011;7085;51.428;6.796;2023-03-01T18:40:24;7.27;;;4.60;;
14019;SDS011;7085;51.428;6.796;2023-03-01T18:42:51;7.55;;;5.57;;
14019;SDS011;7085;51.428;6.796;2023-03-01T18:45:18;7.80;;;5.40;;
14019;SDS011;7085;51.428;6.796;2023-03-01T18:47:45;8.02;;;5.38;;
14019;SDS011;7085;51.428;6.796;2023-03-01T18:50:15;7.37;;;5.10;;
14019;SDS011;7085;51.428;6.796;2023-03-01T18:52:42;9.20;;;5.17;;
14019;SDS011;7085;51.428;6.796;2023-03-01T18:55:09;7.53;;;5.53;;
14019;SDS011;7085;51.428;6.796;2023-03-01T18:57:36;9.27;;;5.13;;
14019;SDS011;7085;51.428;6.796;2023-03-01T19:00:04;7.47;;;4.80;;
14019;SDS011;7085;51.428;6.796;2023-03-01T19:02:31;7.37;;;6.10;;
14019;SDS011;7085;51.428;6.796;2023-03-01T19:04:58;7.53;;;5.53;;
14019;SDS011;7085;51.428;6.796;2023-03-01T19:07:26;6.20;;;4.57;;
14019;SDS011;7085;51.428;6.796;2023-03-01T19:09:54;8.43;;;5.23;;
14019;SDS011;7085;51.428;6.796;2023-03-01T19:12:21;9.00;;;5.63;;
14019;SDS011;7085;51.428;6.796;2023-03-01T19:14:48;10.77;;;5.90;;
14019;SDS011;7085;51.428;6.796;2023-03-01T19:17:16;9.60;;;5.90;;
14019;SDS011;7085;51.428;6.796;2023-03-01T19:19:43;10.50;;;5.77;;
14019;SDS011;7085;51.428;6.796;2023-03-01T19:22:11;7.32;;;5.43;;
14019;SDS011;7085;51.428;6.796;2023-03-01T19:24:39;8.40;;;5.43;;
14019;SDS011;7085;51.428;6.796;2023-03-01T19:27:06;12.00;;;5.77;;
14019;SDS011;7085;51.428;6.796;2023-03-01T19:29:33;9.20;;;6.37;;
14019;SDS011;7085;51.428;6.796;2023-03-01T19:32:00;9.13;;;5.60;;